Ship Status Report: callsign BAREU51

sailwx.info

Track history (hours):
 
Tides and Currents Weather Stations Pressure Air Temp Water Temp Dewpoint Dewpoint Depression Visibility Wind Speed Wind Dir Waves Ship Positions

Callsign BAREU51 (name unknown)

Last reported at 2014-Aug-22 15:00 UTC. Time now 2014-Aug-22 15:40 UTC.
Position N 42°12' E 009°48'.

Barometer 1015.1 mb
Air temperature 25.2 ° C

Date/timePositionNaut miles runAvg speedWind from/ knotsBaromVisibWave heightAir tempDewpointWater temp
2014-Aug-22 15:00N 42°12' E 009°48'2424.4 1015.1 25.2
2014-Aug-22 14:00N 42°36' E 009°42'2424.4 1015.5 25.2
2014-Aug-22 13:00N 43°00' E 009°36'2020.0 1015.4 24.3
2014-Aug-22 12:00N 43°18' E 009°24'2424.4 1015.8 22.8
2014-Aug-22 11:00N 43°42' E 009°18'2625.5 1014.9 23.0
2014-Aug-22 10:00N 44°06' E 009°06'2019.9 1014.3 22.9
2014-Aug-22 09:00N 44°24' E 008°54'0 0.0 1016.2 24.5
2014-Aug-22 06:00N 44°24' E 008°54'0 0.0 1017.0 20.8
2014-Aug-21 17:00N 44°24' E 008°54'1514.8 1014.3 23.4
2014-Aug-21 16:00N 44°12' E 009°06'5627.8 1014.1 22.9
2014-Aug-21 14:00N 43°18' E 009°24'2625.5 1013.0 23.2
2014-Aug-21 13:00N 42°54' E 009°36'3030.3 1014.5 25.8
2014-Aug-21 12:00N 42°24' E 009°42'2424.0 1014.8 26.0
2014-Aug-21 11:00N 42°00' E 009°42'3131.3 1015.5 25.5
2014-Aug-21 10:00N 41°30' E 009°54'2424.4 1013.9 23.9
2014-Aug-21 09:00N 41°06' E 010°00'3030.0 1014.4 25.2
2014-Aug-21 08:00N 40°36' E 010°00'2424.4 1015.4 24.3
2014-Aug-21 07:00N 40°12' E 009°54'3030.0 1016.8 25.2
2014-Aug-21 06:00N 39°42' E 009°54'2424.4 1016.0 24.8
2014-Aug-21 05:00N 39°18' E 009°48'3030.4 1014.7 24.4
2014-Aug-21 04:00N 38°48' E 009°54'2625.8 1013.9 23.6
2014-Aug-21 03:00N 38°24' E 010°06'2424.5 1013.4 24.2
2014-Aug-21 02:00N 38°00' E 010°12'3131.5 1014.0 23.5
2014-Aug-21 01:00N 37°30' E 010°24'2424.5 1014.0 24.4
2014-Aug-21 00:00N 37°06' E 010°30'6 0.6 1014.9 25.0
2014-Aug-20 14:00N 37°00' E 010°30'2424.5 1016.5 25.8
2014-Aug-20 13:00N 37°24' E 010°24'2424.5 1012.7 25.3
2014-Aug-20 12:00N 37°48' E 010°18'1918.6 1014.2 24.9
2014-Aug-20 11:00N 38°06' E 010°12'2625.8 1014.6 25.4
2014-Aug-20 10:00N 38°30' E 010°00'4824.1 1016.9 25.6
2014-Aug-20 08:00N 39°18' E 009°54'2424.0 1016.8 25.9
2014-Aug-20 07:00N 39°42' E 009°54'1818.0 1017.5 25.0
2014-Aug-20 06:00N 40°00' E 009°54'2424.0 1015.1 24.0
2014-Aug-20 05:00N 40°24' E 009°54'2424.4 1014.4 23.2
2014-Aug-20 04:00N 40°48' E 010°00'3030.3 1013.4 22.9
2014-Aug-20 03:00N 41°18' E 009°54'2424.0 1012.3 22.4
2014-Aug-20 02:00N 41°42' E 009°54'2424.4 1013.3 23.5
2014-Aug-20 01:00N 42°06' E 009°48'2424.4 1013.5 23.5
2014-Aug-20 00:00N 42°30' E 009°42'2424.4 1013.5 23.0
2014-Aug-19 23:00N 42°54' E 009°36'2424.4 1013.6 22.5
2014-Aug-19 22:00N 43°18' E 009°30'5125.5 1013.6 22.1
2014-Aug-19 20:00N 44°06' E 009°06'20 3.3 1012.9 22.9
2014-Aug-19 14:00N 44°24' E 008°54'2019.9 1012.9 27.0
2014-Aug-19 13:00N 44°06' E 009°06'2020.0 1012.6 25.3
2014-Aug-19 12:00N 43°48' E 009°18'2424.4 1012.4 24.9
2014-Aug-19 11:00N 43°24' E 009°24'2625.5 1012.8 26.5
2014-Aug-19 10:00N 43°00' E 009°36'4924.4 1014.1 24.2
2014-Aug-19 08:00N 42°12' E 009°48'3030.0 1014.2 23.7
2014-Aug-19 07:00N 41°42' E 009°48'2424.4 1012.7 22.8
2014-Aug-19 06:00N 41°18' E 009°54'3030.3 1013.5 23.5
2014-Aug-19 05:00N 40°48' E 010°00'2424.4 1011.8 23.2
2014-Aug-19 04:00N 40°24' E 009°54'3030.0 1011.6 23.1
2014-Aug-19 03:00N 39°54' E 009°54'2424.4 1012.0 23.1
2014-Aug-19 02:00N 39°30' E 009°48'3030.4 1013.3 23.8
2014-Aug-19 01:00N 39°00' E 009°54'2424.5 1012.3 23.6
2014-Aug-19 00:00N 38°36' E 010°00'2625.8 1012.3 24.1
2014-Aug-18 23:00N 38°12' E 010°12'3030.4 1012.6 24.4
2014-Aug-18 22:00N 37°42' E 010°18'2625.8 1013.2 24.6
2014-Aug-18 21:00N 37°18' E 010°30'24 2.2 1014.0 25.0
2014-Aug-18 10:00N 36°54' E 010°24'1918.6 1017.1 27.1
2014-Aug-18 09:00N 37°12' E 010°30'2424.0 1017.1 24.8
2014-Aug-18 08:00N 37°36' E 010°30'2424.5 1017.2 24.4
2014-Aug-18 07:00N 38°00' E 010°24'2424.0 1017.1 23.4
2014-Aug-18 06:00N 38°24' E 010°24'1818.0 1017.2 22.9
2014-Aug-18 05:00N 38°42' E 010°24'2424.5 1016.0 22.9
2014-Aug-18 04:00N 39°06' E 010°18'2424.0 1015.6 23.0
2014-Aug-18 03:00N 39°30' E 010°18'2424.4 1015.4 23.0
2014-Aug-18 02:00N 39°54' E 010°12'2424.0 1015.3 23.9
2014-Aug-18 01:00N 40°18' E 010°12'1918.6 1015.9 23.4
2014-Aug-18 00:00N 40°36' E 010°06'2424.0 1016.4 22.6
2014-Aug-17 23:00N 41°00' E 010°06'2424.4 1016.1 21.5
2014-Aug-17 22:00N 41°24' E 010°00'2424.4 1015.1 21.9
2014-Aug-17 21:00N 41°48' E 009°54'2424.4 1015.5 22.8
2014-Aug-17 20:00N 42°12' E 009°48'3030.3 1015.5 22.9
2014-Aug-17 19:00N 42°42' E 009°42'2424.4 1015.3 22.7
2014-Aug-17 18:00N 43°06' E 009°36'2727.3 1015.5 23.0
2014-Aug-17 17:00N 43°30' E 009°18'2625.5 1016.0 23.4
2014-Aug-17 16:00N 43°54' E 009°06'31 4.5 1016.4 23.5
2014-Aug-17 09:00N 44°24' E 008°54'4522.7 1019.9 24.0
2014-Aug-17 07:00N 43°42' E 009°18'3131.2 1019.1 23.1
2014-Aug-17 06:00N 43°12' E 009°30'2424.4 1018.1 22.3
2014-Aug-17 05:00N 42°48' E 009°36'3131.3 1016.8 22.0
2014-Aug-17 04:00N 42°18' E 009°48'4824.1 1016.1 22.2
2014-Aug-17 02:00N 41°30' E 009°54'3030.0 1016.2 21.9
2014-Aug-17 01:00N 41°00' E 009°54'2424.4 1015.5 20.7
2014-Aug-17 00:00N 40°36' E 010°00'2424.4 1015.4 21.3
2014-Aug-16 23:00N 40°12' E 009°54'5427.1 1014.5 22.8
2014-Aug-16 21:00N 39°18' E 009°48'2424.4 1015.1 23.7
2014-Aug-16 20:00N 38°54' E 009°54'3030.4 1015.7 24.2
2014-Aug-16 19:00N 38°24' E 010°00'2625.8 1015.2 24.7
2014-Aug-16 18:00N 38°00' E 010°12'2625.8 1015.6 24.6
2014-Aug-16 17:00N 37°36' E 010°24'2424.5 1015.8 25.0
2014-Aug-16 16:00N 37°12' E 010°30'2424.5 1015.1 25.5
2014-Aug-16 15:00N 36°48' E 010°24'0 0.0 1016.0 26.8
2014-Aug-16 06:00N 36°48' E 010°24'1312.9 1018.3 23.6
2014-Aug-16 05:00N 37°00' E 010°30'2424.5 1017.5 23.3
2014-Aug-16 04:00N 37°24' E 010°36'2020.4 1016.8 23.9
2014-Aug-16 03:00N 37°42' E 010°24'2020.3 1017.0 23.4
2014-Aug-16 02:00N 38°00' E 010°12'2424.5 1016.8 23.6
2014-Aug-16 01:00N 38°24' E 010°06'5025.0 1016.7 23.5
2014-Aug-15 23:00N 39°12' E 009°48'1818.0 1017.1 24.7
2014-Aug-15 22:00N 39°30' E 009°48'4824.1 1017.4 25.8
2014-Aug-15 20:00N 40°18' E 009°54'2424.0 1016.5 25.2
2014-Aug-15 19:00N 40°42' E 009°54'2424.4 1016.5 24.9
2014-Aug-15 18:00N 41°06' E 009°48'2424.4 1014.2 22.3
2014-Aug-15 17:00N 41°30' E 009°42'1818.0 1011.0 22.5
2014-Aug-15 16:00N 41°48' E 009°42'2424.4 1011.9 27.3
2014-Aug-15 15:00N 42°12' E 009°48'2424.4 1012.7 26.3
2014-Aug-15 14:00N 42°36' E 009°42'2424.4 1014.4 26.5
2014-Aug-15 13:00N 43°00' E 009°36'2625.5 1008.0 22.8
2014-Aug-15 12:00N 43°24' E 009°24'2020.0 1010.0 21.6
2014-Aug-15 11:00N 43°42' E 009°12'2424.4 1011.5 23.2
2014-Aug-15 10:00N 44°06' E 009°06'2019.9 1011.7 24.1
2014-Aug-15 09:00N 44°24' E 008°54'0 0.0 1012.6 25.4
2014-Aug-13 15:00N 44°24' E 008°54'2019.9 1005.6 24.1
2014-Aug-13 14:00N 44°06' E 009°06'2625.5 1008.6 25.1
2014-Aug-13 13:00N 43°42' E 009°18'2625.5 1007.6 24.0
2014-Aug-13 12:00N 43°18' E 009°30'2424.4 1007.8 25.8
2014-Aug-13 11:00N 42°54' E 009°36'2424.4 1009.1 27.3
2014-Aug-13 10:00N 42°30' E 009°42'3030.3 1009.6 27.9
2014-Aug-13 09:00N 42°00' E 009°48'2424.0 1010.0 27.8
2014-Aug-13 08:00N 41°36' E 009°48'2625.6 1011.0 26.0
2014-Aug-13 07:00N 41°12' E 010°00'2424.4 1012.4 25.6
2014-Aug-13 06:00N 40°48' E 010°06'2424.4 1011.3 25.4
2014-Aug-13 05:00N 40°24' E 010°12'2424.0 1011.0 24.6
2014-Aug-13 04:00N 40°00' E 010°12'5427.1 1010.9 24.4
2014-Aug-13 02:00N 39°06' E 010°18'2424.5 1011.7 23.9
2014-Aug-13 01:00N 38°42' E 010°24'2424.0 1012.1 23.8
2014-Aug-13 00:00N 38°18' E 010°24'2424.5 1012.2 24.0
2014-Aug-12 23:00N 37°54' E 010°30'3030.0 1012.6 24.9
2014-Aug-12 22:00N 37°24' E 010°30'2424.0 1012.6 25.8
2014-Aug-12 21:00N 37°00' E 010°30'   1012.5 26.7
Track history (hours):
 
Tides and Currents Weather Stations Pressure Air Temp Water Temp Dewpoint Dewpoint Depression Visibility Wind Speed Wind Dir Waves Ship Positions

Callsign BAREU51 (name unknown)

Last reported at 2014-Aug-22 15:00 UTC. Time now 2014-Aug-22 15:40 UTC.
Position N 42°12' E 009°48'.

Barometer 1015.1 mb
Air temperature 25.2 ° C

Date/timePositionNaut miles runAvg speedWind from/ knotsBaromVisibWave heightAir tempDewpointWater temp
2014-Aug-22 15:00N 42°12' E 009°48'2424.4 1015.1 25.2
2014-Aug-22 14:00N 42°36' E 009°42'2424.4 1015.5 25.2
2014-Aug-22 13:00N 43°00' E 009°36'2020.0 1015.4 24.3
2014-Aug-22 12:00N 43°18' E 009°24'2424.4 1015.8 22.8
2014-Aug-22 11:00N 43°42' E 009°18'2625.5 1014.9 23.0
2014-Aug-22 10:00N 44°06' E 009°06'2019.9 1014.3 22.9
2014-Aug-22 09:00N 44°24' E 008°54'0 0.0 1016.2 24.5
2014-Aug-22 06:00N 44°24' E 008°54'0 0.0 1017.0 20.8
2014-Aug-21 17:00N 44°24' E 008°54'1514.8 1014.3 23.4
2014-Aug-21 16:00N 44°12' E 009°06'5627.8 1014.1 22.9
2014-Aug-21 14:00N 43°18' E 009°24'2625.5 1013.0 23.2
2014-Aug-21 13:00N 42°54' E 009°36'3030.3 1014.5 25.8
2014-Aug-21 12:00N 42°24' E 009°42'2424.0 1014.8 26.0
2014-Aug-21 11:00N 42°00' E 009°42'3131.3 1015.5 25.5
2014-Aug-21 10:00N 41°30' E 009°54'2424.4 1013.9 23.9
2014-Aug-21 09:00N 41°06' E 010°00'3030.0 1014.4 25.2
2014-Aug-21 08:00N 40°36' E 010°00'2424.4 1015.4 24.3
2014-Aug-21 07:00N 40°12' E 009°54'3030.0 1016.8 25.2
2014-Aug-21 06:00N 39°42' E 009°54'2424.4 1016.0 24.8
2014-Aug-21 05:00N 39°18' E 009°48'3030.4 1014.7 24.4
2014-Aug-21 04:00N 38°48' E 009°54'2625.8 1013.9 23.6
2014-Aug-21 03:00N 38°24' E 010°06'2424.5 1013.4 24.2
2014-Aug-21 02:00N 38°00' E 010°12'3131.5 1014.0 23.5
2014-Aug-21 01:00N 37°30' E 010°24'2424.5 1014.0 24.4
2014-Aug-21 00:00N 37°06' E 010°30'6 0.6 1014.9 25.0
2014-Aug-20 14:00N 37°00' E 010°30'2424.5 1016.5 25.8
2014-Aug-20 13:00N 37°24' E 010°24'2424.5 1012.7 25.3
2014-Aug-20 12:00N 37°48' E 010°18'1918.6 1014.2 24.9
2014-Aug-20 11:00N 38°06' E 010°12'2625.8 1014.6 25.4
2014-Aug-20 10:00N 38°30' E 010°00'4824.1 1016.9 25.6
2014-Aug-20 08:00N 39°18' E 009°54'2424.0 1016.8 25.9
2014-Aug-20 07:00N 39°42' E 009°54'1818.0 1017.5 25.0
2014-Aug-20 06:00N 40°00' E 009°54'2424.0 1015.1 24.0
2014-Aug-20 05:00N 40°24' E 009°54'2424.4 1014.4 23.2
2014-Aug-20 04:00N 40°48' E 010°00'3030.3 1013.4 22.9
2014-Aug-20 03:00N 41°18' E 009°54'2424.0 1012.3 22.4
2014-Aug-20 02:00N 41°42' E 009°54'2424.4 1013.3 23.5
2014-Aug-20 01:00N 42°06' E 009°48'2424.4 1013.5 23.5
2014-Aug-20 00:00N 42°30' E 009°42'2424.4 1013.5 23.0
2014-Aug-19 23:00N 42°54' E 009°36'2424.4 1013.6 22.5
2014-Aug-19 22:00N 43°18' E 009°30'5125.5 1013.6 22.1
2014-Aug-19 20:00N 44°06' E 009°06'20 3.3 1012.9 22.9
2014-Aug-19 14:00N 44°24' E 008°54'2019.9 1012.9 27.0
2014-Aug-19 13:00N 44°06' E 009°06'2020.0 1012.6 25.3
2014-Aug-19 12:00N 43°48' E 009°18'2424.4 1012.4 24.9
2014-Aug-19 11:00N 43°24' E 009°24'2625.5 1012.8 26.5
2014-Aug-19 10:00N 43°00' E 009°36'4924.4 1014.1 24.2
2014-Aug-19 08:00N 42°12' E 009°48'3030.0 1014.2 23.7
2014-Aug-19 07:00N 41°42' E 009°48'2424.4 1012.7 22.8
2014-Aug-19 06:00N 41°18' E 009°54'3030.3 1013.5 23.5
2014-Aug-19 05:00N 40°48' E 010°00'2424.4 1011.8 23.2
2014-Aug-19 04:00N 40°24' E 009°54'3030.0 1011.6 23.1
2014-Aug-19 03:00N 39°54' E 009°54'2424.4 1012.0 23.1
2014-Aug-19 02:00N 39°30' E 009°48'3030.4 1013.3 23.8
2014-Aug-19 01:00N 39°00' E 009°54'2424.5 1012.3 23.6
2014-Aug-19 00:00N 38°36' E 010°00'2625.8 1012.3 24.1
2014-Aug-18 23:00N 38°12' E 010°12'3030.4 1012.6 24.4
2014-Aug-18 22:00N 37°42' E 010°18'2625.8 1013.2 24.6
2014-Aug-18 21:00N 37°18' E 010°30'24 2.2 1014.0 25.0
2014-Aug-18 10:00N 36°54' E 010°24'1918.6 1017.1 27.1
2014-Aug-18 09:00N 37°12' E 010°30'2424.0 1017.1 24.8
2014-Aug-18 08:00N 37°36' E 010°30'2424.5 1017.2 24.4
2014-Aug-18 07:00N 38°00' E 010°24'2424.0 1017.1 23.4
2014-Aug-18 06:00N 38°24' E 010°24'1818.0 1017.2 22.9
2014-Aug-18 05:00N 38°42' E 010°24'2424.5 1016.0 22.9
2014-Aug-18 04:00N 39°06' E 010°18'2424.0 1015.6 23.0
2014-Aug-18 03:00N 39°30' E 010°18'2424.4 1015.4 23.0
2014-Aug-18 02:00N 39°54' E 010°12'2424.0 1015.3 23.9
2014-Aug-18 01:00N 40°18' E 010°12'1918.6 1015.9 23.4
2014-Aug-18 00:00N 40°36' E 010°06'2424.0 1016.4 22.6
2014-Aug-17 23:00N 41°00' E 010°06'2424.4 1016.1 21.5
2014-Aug-17 22:00N 41°24' E 010°00'2424.4 1015.1 21.9
2014-Aug-17 21:00N 41°48' E 009°54'2424.4 1015.5 22.8
2014-Aug-17 20:00N 42°12' E 009°48'3030.3 1015.5 22.9
2014-Aug-17 19:00N 42°42' E 009°42'2424.4 1015.3 22.7
2014-Aug-17 18:00N 43°06' E 009°36'2727.3 1015.5 23.0
2014-Aug-17 17:00N 43°30' E 009°18'2625.5 1016.0 23.4
2014-Aug-17 16:00N 43°54' E 009°06'31 4.5 1016.4 23.5
2014-Aug-17 09:00N 44°24' E 008°54'4522.7 1019.9 24.0
2014-Aug-17 07:00N 43°42' E 009°18'3131.2 1019.1 23.1
2014-Aug-17 06:00N 43°12' E 009°30'2424.4 1018.1 22.3
2014-Aug-17 05:00N 42°48' E 009°36'3131.3 1016.8 22.0
2014-Aug-17 04:00N 42°18' E 009°48'4824.1 1016.1 22.2
2014-Aug-17 02:00N 41°30' E 009°54'3030.0 1016.2 21.9
2014-Aug-17 01:00N 41°00' E 009°54'2424.4 1015.5 20.7
2014-Aug-17 00:00N 40°36' E 010°00'2424.4 1015.4 21.3
2014-Aug-16 23:00N 40°12' E 009°54'5427.1 1014.5 22.8
2014-Aug-16 21:00N 39°18' E 009°48'2424.4 1015.1 23.7
2014-Aug-16 20:00N 38°54' E 009°54'3030.4 1015.7 24.2
2014-Aug-16 19:00N 38°24' E 010°00'2625.8 1015.2 24.7
2014-Aug-16 18:00N 38°00' E 010°12'2625.8 1015.6 24.6
2014-Aug-16 17:00N 37°36' E 010°24'2424.5 1015.8 25.0
2014-Aug-16 16:00N 37°12' E 010°30'2424.5 1015.1 25.5
2014-Aug-16 15:00N 36°48' E 010°24'0 0.0 1016.0 26.8
2014-Aug-16 06:00N 36°48' E 010°24'1312.9 1018.3 23.6
2014-Aug-16 05:00N 37°00' E 010°30'2424.5 1017.5 23.3
2014-Aug-16 04:00N 37°24' E 010°36'2020.4 1016.8 23.9
2014-Aug-16 03:00N 37°42' E 010°24'2020.3 1017.0 23.4
2014-Aug-16 02:00N 38°00' E 010°12'2424.5 1016.8 23.6
2014-Aug-16 01:00N 38°24' E 010°06'5025.0 1016.7 23.5
2014-Aug-15 23:00N 39°12' E 009°48'1818.0 1017.1 24.7
2014-Aug-15 22:00N 39°30' E 009°48'4824.1 1017.4 25.8
2014-Aug-15 20:00N 40°18' E 009°54'2424.0 1016.5 25.2
2014-Aug-15 19:00N 40°42' E 009°54'2424.4 1016.5 24.9
2014-Aug-15 18:00N 41°06' E 009°48'2424.4 1014.2 22.3
2014-Aug-15 17:00N 41°30' E 009°42'1818.0 1011.0 22.5
2014-Aug-15 16:00N 41°48' E 009°42'2424.4 1011.9 27.3
2014-Aug-15 15:00N 42°12' E 009°48'2424.4 1012.7 26.3
2014-Aug-15 14:00N 42°36' E 009°42'2424.4 1014.4 26.5
2014-Aug-15 13:00N 43°00' E 009°36'2625.5 1008.0 22.8
2014-Aug-15 12:00N 43°24' E 009°24'2020.0 1010.0 21.6
2014-Aug-15 11:00N 43°42' E 009°12'2424.4 1011.5 23.2
2014-Aug-15 10:00N 44°06' E 009°06'2019.9 1011.7 24.1
2014-Aug-15 09:00N 44°24' E 008°54'0 0.0 1012.6 25.4
2014-Aug-13 15:00N 44°24' E 008°54'2019.9 1005.6 24.1
2014-Aug-13 14:00N 44°06' E 009°06'2625.5 1008.6 25.1
2014-Aug-13 13:00N 43°42' E 009°18'2625.5 1007.6 24.0
2014-Aug-13 12:00N 43°18' E 009°30'2424.4 1007.8 25.8
2014-Aug-13 11:00N 42°54' E 009°36'2424.4 1009.1 27.3
2014-Aug-13 10:00N 42°30' E 009°42'3030.3 1009.6 27.9
2014-Aug-13 09:00N 42°00' E 009°48'2424.0 1010.0 27.8
2014-Aug-13 08:00N 41°36' E 009°48'2625.6 1011.0 26.0
2014-Aug-13 07:00N 41°12' E 010°00'2424.4 1012.4 25.6
2014-Aug-13 06:00N 40°48' E 010°06'2424.4 1011.3 25.4
2014-Aug-13 05:00N 40°24' E 010°12'2424.0 1011.0 24.6
2014-Aug-13 04:00N 40°00' E 010°12'5427.1 1010.9 24.4
2014-Aug-13 02:00N 39°06' E 010°18'2424.5 1011.7 23.9
2014-Aug-13 01:00N 38°42' E 010°24'2424.0 1012.1 23.8
2014-Aug-13 00:00N 38°18' E 010°24'2424.5 1012.2 24.0
2014-Aug-12 23:00N 37°54' E 010°30'3030.0 1012.6 24.9
2014-Aug-12 22:00N 37°24' E 010°30'2424.0 1012.6 25.8
2014-Aug-12 21:00N 37°00' E 010°30'   1012.5 26.7

Dump ship's entire track history